sensor_id;sensor_type;location;lat;lon;timestamp;pressure;altitude;pressure_sealevel;temperature;humidity
64886;BME280;51514;52.206;5.114;2023-02-23T00:00:27;101378.97;;;9.71;95.75
64886;BME280;51514;52.206;5.114;2023-02-23T00:02:54;101387.03;;;9.71;95.78
64886;BME280;51514;52.206;5.114;2023-02-23T00:05:21;101380.09;;;9.69;95.81
64886;BME280;51514;52.206;5.114;2023-02-23T00:07:47;101383.03;;;9.66;96.17
64886;BME280;51514;52.206;5.114;2023-02-23T00:10:14;101377.53;;;9.67;96.10
64886;BME280;51514;52.206;5.114;2023-02-23T00:12:40;101377.97;;;9.72;96.45
64886;BME280;51514;52.206;5.114;2023-02-23T00:15:07;101375.97;;;9.74;96.08
64886;BME280;51514;52.206;5.114;2023-02-23T00:17:33;101384.34;;;9.71;95.79
64886;BME280;51514;52.206;5.114;2023-02-23T00:20:04;101373.72;;;9.70;96.32
64886;BME280;51514;52.206;5.114;2023-02-23T00:22:38;101380.94;;;9.69;96.04
64886;BME280;51514;52.206;5.114;2023-02-23T00:25:05;101382.63;;;9.70;96.01
64886;BME280;51514;52.206;5.114;2023-02-23T00:27:34;101379.94;;;9.70;96.32
64886;BME280;51514;52.206;5.114;2023-02-23T00:30:00;101374.44;;;9.72;96.24
64886;BME280;51514;52.206;5.114;2023-02-23T00:32:25;101372.59;;;9.72;96.34
64886;BME280;51514;52.206;5.114;2023-02-23T00:34:51;101382.06;;;9.76;96.34
64886;BME280;51514;52.206;5.114;2023-02-23T00:37:17;101371.28;;;9.76;96.21
64886;BME280;51514;52.206;5.114;2023-02-23T00:39:42;101373.00;;;9.77;96.15
64886;BME280;51514;52.206;5.114;2023-02-23T00:42:08;101371.03;;;9.79;96.13
64886;BME280;51514;52.206;5.114;2023-02-23T00:44:34;101369.19;;;9.80;95.99
64886;BME280;51514;52.206;5.114;2023-02-23T00:47:05;101375.81;;;9.76;95.72
64886;BME280;51514;52.206;5.114;2023-02-23T00:49:30;101369.72;;;9.74;95.90
64886;BME280;51514;52.206;5.114;2023-02-23T00:51:55;101373.56;;;9.71;95.71
64886;BME280;51514;52.206;5.114;2023-02-23T00:54:21;101367.34;;;9.71;96.09
64886;BME280;51514;52.206;5.114;2023-02-23T00:56:46;101366.22;;;9.73;96.11
64886;BME280;51514;52.206;5.114;2023-02-23T00:59:13;101365.91;;;9.76;95.98
64886;BME280;51514;52.206;5.114;2023-02-23T01:01:40;101369.31;;;9.78;95.88
64886;BME280;51514;52.206;5.114;2023-02-23T01:04:09;101366.47;;;9.80;96.05
64886;BME280;51514;52.206;5.114;2023-02-23T01:06:35;101372.72;;;9.80;95.68
64886;BME280;51514;52.206;5.114;2023-02-23T01:09:06;101378.09;;;9.80;95.58
64886;BME280;51514;52.206;5.114;2023-02-23T01:11:33;101371.03;;;9.79;95.82
64886;BME280;51514;52.206;5.114;2023-02-23T01:13:59;101373.72;;;9.79;95.94
64886;BME280;51514;52.206;5.114;2023-02-23T01:16:30;101374.69;;;9.78;95.76
64886;BME280;51514;52.206;5.114;2023-02-23T01:19:00;101377.53;;;9.77;96.02
64886;BME280;51514;52.206;5.114;2023-02-23T01:21:37;101377.53;;;9.77;95.83
64886;BME280;51514;52.206;5.114;2023-02-23T01:24:04;101371.03;;;9.79;96.15
64886;BME280;51514;52.206;5.114;2023-02-23T01:26:32;101376.41;;;9.79;95.90
64886;BME280;51514;52.206;5.114;2023-02-23T01:29:06;101374.56;;;9.80;96.00
64886;BME280;51514;52.206;5.114;2023-02-23T01:31:36;101371.72;;;9.81;95.89
64886;BME280;51514;52.206;5.114;2023-02-23T01:34:02;101369.91;;;9.82;96.03
64886;BME280;51514;52.206;5.114;2023-02-23T01:36:31;101367.06;;;9.83;95.96
64886;BME280;51514;52.206;5.114;2023-02-23T01:38:56;101373.31;;;9.84;95.85
64886;BME280;51514;52.206;5.114;2023-02-23T01:41:26;101363.34;;;9.84;95.77
64886;BME280;51514;52.206;5.114;2023-02-23T01:46:22;101359.84;;;9.84;95.50
64886;BME280;51514;52.206;5.114;2023-02-23T01:48:48;101365.34;;;9.82;95.46
64886;BME280;51514;52.206;5.114;2023-02-23T01:51:19;101363.94;;;9.78;95.38
64886;BME280;51514;52.206;5.114;2023-02-23T01:53:54;101361.38;;;9.77;95.73
64886;BME280;51514;52.206;5.114;2023-02-23T01:56:25;101371.88;;;9.80;95.59
64886;BME280;51514;52.206;5.114;2023-02-23T01:58:54;101377.13;;;9.81;95.75
64886;BME280;51514;52.206;5.114;2023-02-23T02:01:21;101364.38;;;9.83;95.42
64886;BME280;51514;52.206;5.114;2023-02-23T02:03:56;101366.22;;;9.83;95.29
64886;BME280;51514;52.206;5.114;2023-02-23T02:06:24;101369.91;;;9.82;95.37
64886;BME280;51514;52.206;5.114;2023-02-23T02:08:56;101370.88;;;9.81;95.55
64886;BME280;51514;52.206;5.114;2023-02-23T02:11:22;101372.72;;;9.80;95.57
64886;BME280;51514;52.206;5.114;2023-02-23T02:19:33;101378.66;;;9.74;95.84
64886;BME280;51514;52.206;5.114;2023-02-23T02:30:35;101385.06;;;9.73;95.58
64886;BME280;51514;52.206;5.114;2023-02-23T02:38:52;101377.78;;;9.64;95.62
64886;BME280;51514;52.206;5.114;2023-02-23T02:41:43;101375.41;;;9.61;96.15
64886;BME280;51514;52.206;5.114;2023-02-23T02:44:23;101374.13;;;9.65;96.06
64886;BME280;51514;52.206;5.114;2023-02-23T02:46:56;101374.13;;;9.65;95.53
64886;BME280;51514;52.206;5.114;2023-02-23T02:49:29;101375.94;;;9.65;95.65
64886;BME280;51514;52.206;5.114;2023-02-23T02:52:04;101376.81;;;9.65;95.60
64886;BME280;51514;52.206;5.114;2023-02-23T02:54:40;101370.44;;;9.66;95.36
64886;BME280;51514;52.206;5.114;2023-02-23T02:57:09;101375.09;;;9.64;95.45
64886;BME280;51514;52.206;5.114;2023-02-23T02:59:43;101373.69;;;9.60;95.56
64886;BME280;51514;52.206;5.114;2023-02-23T03:02:28;101376.66;;;9.57;95.68
64886;BME280;51514;52.206;5.114;2023-02-23T03:05:15;101382.03;;;9.57;95.98
64886;BME280;51514;52.206;5.114;2023-02-23T03:11:06;101375.22;;;9.53;95.94
64886;BME280;51514;52.206;5.114;2023-02-23T03:17:03;101372.13;;;9.58;96.06
64886;BME280;51514;52.206;5.114;2023-02-23T03:20:23;101373.97;;;9.57;95.71
64886;BME280;51514;52.206;5.114;2023-02-23T03:23:29;101366.59;;;9.59;95.87
64886;BME280;51514;52.206;5.114;2023-02-23T03:32:25;101373.13;;;9.66;95.46
64886;BME280;51514;52.206;5.114;2023-02-23T03:36:14;101381.34;;;9.65;95.49
64886;BME280;51514;52.206;5.114;2023-02-23T03:41:20;101390.56;;;9.62;95.14
64886;BME280;51514;52.206;5.114;2023-02-23T03:44:13;101389.84;;;9.60;95.63
64886;BME280;51514;52.206;5.114;2023-02-23T03:46:59;101389.28;;;9.57;95.59
64886;BME280;51514;52.206;5.114;2023-02-23T03:49:48;101390.38;;;9.54;95.59
64886;BME280;51514;52.206;5.114;2023-02-23T03:52:59;101393.38;;;9.51;96.17
64886;BME280;51514;52.206;5.114;2023-02-23T03:55:43;101398.75;;;9.51;96.45
64886;BME280;51514;52.206;5.114;2023-02-23T03:58:33;101407.25;;;9.56;96.33
64886;BME280;51514;52.206;5.114;2023-02-23T04:01:20;101399.91;;;9.58;96.30
64886;BME280;51514;52.206;5.114;2023-02-23T04:04:07;101408.97;;;9.57;96.18
64886;BME280;51514;52.206;5.114;2023-02-23T04:06:54;101406.41;;;9.56;96.25
64886;BME280;51514;52.206;5.114;2023-02-23T04:09:39;101410.09;;;9.55;96.25
64886;BME280;51514;52.206;5.114;2023-02-23T04:12:48;101408.50;;;9.52;96.72
64886;BME280;51514;52.206;5.114;2023-02-23T04:18:13;101412.91;;;9.53;96.23
64886;BME280;51514;52.206;5.114;2023-02-23T04:20:39;101408.13;;;9.57;96.29
64886;BME280;51514;52.206;5.114;2023-02-23T04:23:04;101414.09;;;9.60;96.49
64886;BME280;51514;52.206;5.114;2023-02-23T04:25:30;101423.88;;;9.61;96.11
64886;BME280;51514;52.206;5.114;2023-02-23T04:27:55;101415.47;;;9.64;95.92
64886;BME280;51514;52.206;5.114;2023-02-23T04:30:20;101430.66;;;9.65;96.01
64886;BME280;51514;52.206;5.114;2023-02-23T04:32:49;101426.97;;;9.66;95.85
64886;BME280;51514;52.206;5.114;2023-02-23T04:35:14;101420.59;;;9.67;95.84
64886;BME280;51514;52.206;5.114;2023-02-23T04:37:40;101416.34;;;9.65;95.86
64886;BME280;51514;52.206;5.114;2023-02-23T04:40:05;101423.56;;;9.64;95.95
64886;BME280;51514;52.206;5.114;2023-02-23T04:42:31;101429.66;;;9.66;95.70
64886;BME280;51514;52.206;5.114;2023-02-23T04:44:56;101423.44;;;9.66;95.70
64886;BME280;51514;52.206;5.114;2023-02-23T04:47:23;101426.00;;;9.67;95.61
64886;BME280;51514;52.206;5.114;2023-02-23T04:49:48;101431.38;;;9.67;95.46
64886;BME280;51514;52.206;5.114;2023-02-23T04:52:14;101431.50;;;9.66;95.36
64886;BME280;51514;52.206;5.114;2023-02-23T04:54:39;101431.50;;;9.66;95.35
64886;BME280;51514;52.206;5.114;2023-02-23T04:57:05;101436.75;;;9.67;94.97
64886;BME280;51514;52.206;5.114;2023-02-23T04:59:31;101437.63;;;9.68;95.54
64886;BME280;51514;52.206;5.114;2023-02-23T05:01:56;101438.47;;;9.68;95.67
64886;BME280;51514;52.206;5.114;2023-02-23T05:04:21;101444.69;;;9.69;95.30
64886;BME280;51514;52.206;5.114;2023-02-23T05:06:47;101426.84;;;9.68;95.21
64886;BME280;51514;52.206;5.114;2023-02-23T05:09:13;101429.66;;;9.66;95.42
64886;BME280;51514;52.206;5.114;2023-02-23T05:11:38;101435.91;;;9.67;95.40
64886;BME280;51514;52.206;5.114;2023-02-23T05:14:03;101440.44;;;9.66;95.38
64886;BME280;51514;52.206;5.114;2023-02-23T05:16:29;101443.00;;;9.68;95.33
64886;BME280;51514;52.206;5.114;2023-02-23T05:18:54;101442.28;;;9.66;95.44
64886;BME280;51514;52.206;5.114;2023-02-23T05:21:19;101448.66;;;9.65;95.06
64886;BME280;51514;52.206;5.114;2023-02-23T05:23:45;101451.34;;;9.65;95.25
64886;BME280;51514;52.206;5.114;2023-02-23T05:26:11;101444.13;;;9.65;95.07
64886;BME280;51514;52.206;5.114;2023-02-23T05:28:39;101451.22;;;9.66;95.18
64886;BME280;51514;52.206;5.114;2023-02-23T05:31:05;101453.19;;;9.64;95.24
64886;BME280;51514;52.206;5.114;2023-02-23T05:33:32;101440.72;;;9.63;95.42
64886;BME280;51514;52.206;5.114;2023-02-23T05:35:58;101442.41;;;9.64;95.33
64886;BME280;51514;52.206;5.114;2023-02-23T05:38:24;101446.81;;;9.65;95.21
64886;BME280;51514;52.206;5.114;2023-02-23T05:40:50;101449.50;;;9.65;95.29
64886;BME280;51514;52.206;5.114;2023-02-23T05:43:15;101449.50;;;9.65;94.94
64886;BME280;51514;52.206;5.114;2023-02-23T05:45:42;101446.81;;;9.65;95.30
64886;BME280;51514;52.206;5.114;2023-02-23T05:48:08;101452.31;;;9.64;95.00
64886;BME280;51514;52.206;5.114;2023-02-23T05:50:34;101453.47;;;9.61;94.99
64886;BME280;51514;52.206;5.114;2023-02-23T05:53:00;101449.94;;;9.61;95.21
64886;BME280;51514;52.206;5.114;2023-02-23T05:55:25;101457.28;;;9.59;94.82
64886;BME280;51514;52.206;5.114;2023-02-23T05:57:51;101460.84;;;9.59;95.04
64886;BME280;51514;52.206;5.114;2023-02-23T06:00:17;101453.75;;;9.58;95.02
64886;BME280;51514;52.206;5.114;2023-02-23T06:02:42;101457.16;;;9.60;94.93
64886;BME280;51514;52.206;5.114;2023-02-23T06:05:10;101458.88;;;9.61;94.88
64886;BME280;51514;52.206;5.114;2023-02-23T06:07:36;101463.41;;;9.61;94.81
64886;BME280;51514;52.206;5.114;2023-02-23T06:10:02;101466.09;;;9.61;95.12
64886;BME280;51514;52.206;5.114;2023-02-23T06:12:27;101457.16;;;9.60;94.90
64886;BME280;51514;52.206;5.114;2023-02-23T06:14:53;101460.69;;;9.61;94.75
64886;BME280;51514;52.206;5.114;2023-02-23T06:17:18;101462.81;;;9.57;94.80
64886;BME280;51514;52.206;5.114;2023-02-23T06:19:43;101467.22;;;9.58;94.97
64886;BME280;51514;52.206;5.114;2023-02-23T06:22:09;101470.88;;;9.57;94.80
64886;BME280;51514;52.206;5.114;2023-02-23T06:24:34;101472.59;;;9.58;95.03
64886;BME280;51514;52.206;5.114;2023-02-23T06:27:00;101477.97;;;9.58;94.84
64886;BME280;51514;52.206;5.114;2023-02-23T06:29:25;101474.44;;;9.58;94.67
64886;BME280;51514;52.206;5.114;2023-02-23T06:31:50;101480.66;;;9.58;94.89
64886;BME280;51514;52.206;5.114;2023-02-23T06:34:16;101487.03;;;9.57;94.94
64886;BME280;51514;52.206;5.114;2023-02-23T06:36:41;101489.00;;;9.55;94.83
64886;BME280;51514;52.206;5.114;2023-02-23T06:39:10;101490.97;;;9.53;94.98
64886;BME280;51514;52.206;5.114;2023-02-23T06:41:35;101490.72;;;9.56;95.12
64886;BME280;51514;52.206;5.114;2023-02-23T06:44:01;101491.69;;;9.55;95.09
64886;BME280;51514;52.206;5.114;2023-02-23T06:46:26;101497.09;;;9.55;95.17
64886;BME280;51514;52.206;5.114;2023-02-23T06:48:56;101490.00;;;9.54;94.72
64886;BME280;51514;52.206;5.114;2023-02-23T06:51:22;101495.25;;;9.56;94.91
64886;BME280;51514;52.206;5.114;2023-02-23T06:53:47;101497.81;;;9.57;95.02
64886;BME280;51514;52.206;5.114;2023-02-23T06:56:13;101495.13;;;9.57;94.97
64886;BME280;51514;52.206;5.114;2023-02-23T06:58:39;101498.78;;;9.56;94.99
64886;BME280;51514;52.206;5.114;2023-02-23T07:01:05;101500.75;;;9.54;94.96
64886;BME280;51514;52.206;5.114;2023-02-23T07:03:30;101508.97;;;9.52;95.24
64886;BME280;51514;52.206;5.114;2023-02-23T07:05:56;101516.91;;;9.54;95.44
64886;BME280;51514;52.206;5.114;2023-02-23T07:08:22;101509.81;;;9.53;95.30
64886;BME280;51514;52.206;5.114;2023-02-23T07:10:47;101518.63;;;9.55;95.42
64886;BME280;51514;52.206;5.114;2023-02-23T07:13:12;101528.28;;;9.58;95.36
64886;BME280;51514;52.206;5.114;2023-02-23T07:15:39;101535.38;;;9.59;95.58
64886;BME280;51514;52.206;5.114;2023-02-23T07:18:05;101538.78;;;9.61;95.52
64886;BME280;51514;52.206;5.114;2023-02-23T07:20:31;101540.50;;;9.62;95.62
64886;BME280;51514;52.206;5.114;2023-02-23T07:22:58;101542.31;;;9.61;95.77
64886;BME280;51514;52.206;5.114;2023-02-23T07:25:25;101540.31;;;9.63;95.73
64886;BME280;51514;52.206;5.114;2023-02-23T07:27:50;101545.59;;;9.65;95.40
64886;BME280;51514;52.206;5.114;2023-02-23T07:30:18;101550.97;;;9.65;95.68
64886;BME280;51514;52.206;5.114;2023-02-23T07:32:44;101550.25;;;9.63;95.39
64886;BME280;51514;52.206;5.114;2023-02-23T07:35:09;101553.78;;;9.63;95.53
64886;BME280;51514;52.206;5.114;2023-02-23T07:37:34;101556.34;;;9.65;95.29
64886;BME280;51514;52.206;5.114;2023-02-23T07:40:00;101559.91;;;9.65;95.23
64886;BME280;51514;52.206;5.114;2023-02-23T07:42:25;101563.19;;;9.69;95.65
64886;BME280;51514;52.206;5.114;2023-02-23T07:44:51;101563.19;;;9.69;95.33
64886;BME280;51514;52.206;5.114;2023-02-23T07:47:16;101569.16;;;9.72;95.49
64886;BME280;51514;52.206;5.114;2023-02-23T07:49:41;101568.00;;;9.75;95.32
64886;BME280;51514;52.206;5.114;2023-02-23T07:52:07;101566.91;;;9.77;95.60
64886;BME280;51514;52.206;5.114;2023-02-23T07:54:32;101569.47;;;9.79;95.46
64886;BME280;51514;52.206;5.114;2023-02-23T07:56:57;101572.03;;;9.80;95.26
64886;BME280;51514;52.206;5.114;2023-02-23T07:59:24;101570.06;;;9.82;95.67
64886;BME280;51514;52.206;5.114;2023-02-23T08:01:49;101576.00;;;9.86;95.46
64886;BME280;51514;52.206;5.114;2023-02-23T08:04:16;101581.25;;;9.87;95.62
64886;BME280;51514;52.206;5.114;2023-02-23T08:06:41;101574.88;;;9.88;95.53
64886;BME280;51514;52.206;5.114;2023-02-23T08:09:06;101586.38;;;9.91;95.30
64886;BME280;51514;52.206;5.114;2023-02-23T08:11:32;101596.16;;;9.92;95.57
64886;BME280;51514;52.206;5.114;2023-02-23T08:13:57;101592.47;;;9.93;95.54
64886;BME280;51514;52.206;5.114;2023-02-23T08:16:28;101597.88;;;9.93;95.50
64886;BME280;51514;52.206;5.114;2023-02-23T08:18:58;101598.72;;;9.93;95.54
64886;BME280;51514;52.206;5.114;2023-02-23T08:21:25;101590.50;;;9.95;95.19
64886;BME280;51514;52.206;5.114;2023-02-23T08:23:51;101601.00;;;9.98;95.68
64886;BME280;51514;52.206;5.114;2023-02-23T08:26:17;101602.69;;;9.99;95.34
64886;BME280;51514;52.206;5.114;2023-02-23T08:28:42;101605.25;;;10.00;95.06
64886;BME280;51514;52.206;5.114;2023-02-23T08:31:13;101601.59;;;10.01;94.78
64886;BME280;51514;52.206;5.114;2023-02-23T08:33:40;101598.63;;;10.04;95.24
64886;BME280;51514;52.206;5.114;2023-02-23T08:36:06;101601.19;;;10.06;94.80
64886;BME280;51514;52.206;5.114;2023-02-23T08:38:32;101609.09;;;10.07;94.54
64886;BME280;51514;52.206;5.114;2023-02-23T08:41:02;101606.41;;;10.07;94.68
64886;BME280;51514;52.206;5.114;2023-02-23T08:43:27;101618.03;;;10.08;94.88
64886;BME280;51514;52.206;5.114;2023-02-23T08:45:53;101624.28;;;10.08;94.60
64886;BME280;51514;52.206;5.114;2023-02-23T08:48:19;101618.91;;;10.08;94.30
64886;BME280;51514;52.206;5.114;2023-02-23T08:50:46;101625.13;;;10.09;94.59
64886;BME280;51514;52.206;5.114;2023-02-23T08:53:17;101628.56;;;10.11;94.84
64886;BME280;51514;52.206;5.114;2023-02-23T08:55:43;101626.72;;;10.11;94.81
64886;BME280;51514;52.206;5.114;2023-02-23T08:58:09;101624.59;;;10.15;94.86
64886;BME280;51514;52.206;5.114;2023-02-23T09:00:38;101632.44;;;10.18;94.92
64886;BME280;51514;52.206;5.114;2023-02-23T09:03:05;101631.31;;;10.20;94.86
64886;BME280;51514;52.206;5.114;2023-02-23T09:05:32;101632.88;;;10.23;94.84
64886;BME280;51514;52.206;5.114;2023-02-23T09:08:00;101638.28;;;10.23;94.60
64886;BME280;51514;52.206;5.114;2023-02-23T09:10:25;101638.28;;;10.23;94.24
64886;BME280;51514;52.206;5.114;2023-02-23T09:12:53;101639.13;;;10.23;94.16
64886;BME280;51514;52.206;5.114;2023-02-23T09:15:18;101640.72;;;10.26;94.35
64886;BME280;51514;52.206;5.114;2023-02-23T09:17:44;101639.72;;;10.27;94.19
64886;BME280;51514;52.206;5.114;2023-02-23T09:20:12;101648.50;;;10.29;94.12
64886;BME280;51514;52.206;5.114;2023-02-23T09:22:41;101651.50;;;10.26;94.51
64886;BME280;51514;52.206;5.114;2023-02-23T09:25:16;101650.50;;;10.27;94.00
64886;BME280;51514;52.206;5.114;2023-02-23T09:27:44;101657.44;;;10.30;94.18
64886;BME280;51514;52.206;5.114;2023-02-23T09:30:10;101655.31;;;10.33;94.38
64886;BME280;51514;52.206;5.114;2023-02-23T09:32:43;101656.19;;;10.34;94.12
64886;BME280;51514;52.206;5.114;2023-02-23T09:35:08;101659.16;;;10.31;93.70
64886;BME280;51514;52.206;5.114;2023-02-23T09:37:34;101659.00;;;10.32;93.86
64886;BME280;51514;52.206;5.114;2023-02-23T09:39:59;101661.56;;;10.34;93.85
64886;BME280;51514;52.206;5.114;2023-02-23T09:42:33;101665.13;;;10.34;93.55
64886;BME280;51514;52.206;5.114;2023-02-23T09:47:54;101659.72;;;10.34;93.69
64886;BME280;51514;52.206;5.114;2023-02-23T09:50:27;101657.75;;;10.36;93.88
64886;BME280;51514;52.206;5.114;2023-02-23T09:53:04;101661.88;;;10.40;93.84
64886;BME280;51514;52.206;5.114;2023-02-23T09:55:31;101658.47;;;10.38;93.62
64886;BME280;51514;52.206;5.114;2023-02-23T09:58:07;101657.03;;;10.34;93.59
64886;BME280;51514;52.206;5.114;2023-02-23T10:00:42;101666.97;;;10.34;93.94
64886;BME280;51514;52.206;5.114;2023-02-23T10:03:18;101662.44;;;10.34;93.67
64886;BME280;51514;52.206;5.114;2023-02-23T10:05:51;101669.53;;;10.35;93.76
64886;BME280;51514;52.206;5.114;2023-02-23T10:19:35;101663.72;;;10.40;93.12
64886;BME280;51514;52.206;5.114;2023-02-23T10:22:08;101670.41;;;10.45;92.96
64886;BME280;51514;52.206;5.114;2023-02-23T10:24:40;101676.91;;;10.43;93.22
64886;BME280;51514;52.206;5.114;2023-02-23T10:29:44;101681.19;;;10.45;93.01
64886;BME280;51514;52.206;5.114;2023-02-23T10:32:19;101687.72;;;10.43;92.80
64886;BME280;51514;52.206;5.114;2023-02-23T10:34:48;101679.34;;;10.46;92.72
64886;BME280;51514;52.206;5.114;2023-02-23T10:37:17;101687.28;;;10.38;92.29
64886;BME280;51514;52.206;5.114;2023-02-23T10:39:43;101697.91;;;10.39;92.50
64886;BME280;51514;52.206;5.114;2023-02-23T10:42:14;101694.81;;;10.44;92.10
64886;BME280;51514;52.206;5.114;2023-02-23T10:44:43;101693.69;;;10.46;91.82
64886;BME280;51514;52.206;5.114;2023-02-23T10:47:15;101689.28;;;10.45;91.81
64886;BME280;51514;52.206;5.114;2023-02-23T10:49:44;101688.00;;;10.49;91.45
64886;BME280;51514;52.206;5.114;2023-02-23T10:52:11;101690.69;;;10.49;91.76
64886;BME280;51514;52.206;5.114;2023-02-23T10:54:44;101691.72;;;10.48;90.87
64886;BME280;51514;52.206;5.114;2023-02-23T10:57:18;101691.00;;;10.46;90.52
64886;BME280;51514;52.206;5.114;2023-02-23T11:02:37;101691.81;;;10.37;90.44
64886;BME280;51514;52.206;5.114;2023-02-23T11:05:04;101695.50;;;10.36;90.60
64886;BME280;51514;52.206;5.114;2023-02-23T11:07:31;101701.41;;;10.30;90.56
64886;BME280;51514;52.206;5.114;2023-02-23T11:10:32;101703.69;;;10.25;90.45
64886;BME280;51514;52.206;5.114;2023-02-23T11:12:58;101702.69;;;10.26;91.52
64886;BME280;51514;52.206;5.114;2023-02-23T11:20:39;101710.63;;;10.28;91.47
64886;BME280;51514;52.206;5.114;2023-02-23T11:23:17;101714.03;;;10.30;91.76
64886;BME280;51514;52.206;5.114;2023-02-23T11:25:45;101717.31;;;10.33;91.47
64886;BME280;51514;52.206;5.114;2023-02-23T11:28:39;101719.03;;;10.34;91.17
64886;BME280;51514;52.206;5.114;2023-02-23T11:31:17;101725.03;;;10.38;91.20
64886;BME280;51514;52.206;5.114;2023-02-23T11:33:45;101729.56;;;10.37;90.78
64886;BME280;51514;52.206;5.114;2023-02-23T11:36:24;101714.06;;;10.39;90.93
64886;BME280;51514;52.206;5.114;2023-02-23T11:39:17;101710.97;;;10.44;91.15
64886;BME280;51514;52.206;5.114;2023-02-23T11:41:38;101710.59;;;10.48;90.53
64886;BME280;51514;52.206;5.114;2023-02-23T11:44:04;101714.13;;;10.49;90.67
64886;BME280;51514;52.206;5.114;2023-02-23T11:46:33;101711.56;;;10.47;90.59
64886;BME280;51514;52.206;5.114;2023-02-23T11:49:07;101715.53;;;10.53;91.03
64886;BME280;51514;52.206;5.114;2023-02-23T11:51:46;101710.88;;;10.55;90.53
64886;BME280;51514;52.206;5.114;2023-02-23T11:54:22;101700.22;;;10.53;88.53
64886;BME280;51514;52.206;5.114;2023-02-23T11:56:49;101705.34;;;10.56;87.27
64886;BME280;51514;52.206;5.114;2023-02-23T11:59:17;101698.25;;;10.55;85.94
64886;BME280;51514;52.206;5.114;2023-02-23T12:01:52;101712.72;;;10.54;85.23
64886;BME280;51514;52.206;5.114;2023-02-23T12:04:35;101706.47;;;10.54;85.07
64886;BME280;51514;52.206;5.114;2023-02-23T12:07:26;101701.06;;;10.54;85.17
64886;BME280;51514;52.206;5.114;2023-02-23T12:10:23;101704.75;;;10.53;84.94
64886;BME280;51514;52.206;5.114;2023-02-23T12:12:53;101702.63;;;10.47;84.13
64886;BME280;51514;52.206;5.114;2023-02-23T12:15:29;101698.50;;;10.43;84.03
64886;BME280;51514;52.206;5.114;2023-02-23T12:18:10;101705.00;;;10.40;84.48
64886;BME280;51514;52.206;5.114;2023-02-23T12:20:41;101707.44;;;10.43;85.10
64886;BME280;51514;52.206;5.114;2023-02-23T12:23:14;101698.22;;;10.46;85.01
64886;BME280;51514;52.206;5.114;2023-02-23T12:25:49;101701.63;;;10.48;85.22
64886;BME280;51514;52.206;5.114;2023-02-23T12:30:59;101702.66;;;10.56;85.41
64886;BME280;51514;52.206;5.114;2023-02-23T12:33:30;101705.91;;;10.60;85.31
64886;BME280;51514;52.206;5.114;2023-02-23T12:36:08;101704.38;;;10.57;85.73
64886;BME280;51514;52.206;5.114;2023-02-23T12:39:02;101709.63;;;10.59;85.40
64886;BME280;51514;52.206;5.114;2023-02-23T12:41:40;101702.38;;;10.59;85.29
64886;BME280;51514;52.206;5.114;2023-02-23T12:44:37;101705.34;;;10.56;85.70
64886;BME280;51514;52.206;5.114;2023-02-23T12:47:12;101705.47;;;10.55;85.35
64886;BME280;51514;52.206;5.114;2023-02-23T12:49:43;101704.38;;;10.57;85.83
64886;BME280;51514;52.206;5.114;2023-02-23T12:52:15;101704.63;;;10.54;85.57
64886;BME280;51514;52.206;5.114;2023-02-23T12:54:44;101697.25;;;10.56;86.34
64886;BME280;51514;52.206;5.114;2023-02-23T13:11:49;101680.88;;;10.39;86.87
64886;BME280;51514;52.206;5.114;2023-02-23T13:22:59;101688.13;;;10.38;88.50
64886;BME280;51514;52.206;5.114;2023-02-23T13:25:36;101683.72;;;10.37;88.80
64886;BME280;51514;52.206;5.114;2023-02-23T13:28:07;101692.25;;;10.42;89.35
64886;BME280;51514;52.206;5.114;2023-02-23T13:30:38;101695.06;;;10.41;89.15
64886;BME280;51514;52.206;5.114;2023-02-23T13:33:24;101697.22;;;10.37;89.65
64886;BME280;51514;52.206;5.114;2023-02-23T13:35:50;101703.28;;;10.39;89.96
64886;BME280;51514;52.206;5.114;2023-02-23T13:38:22;101696.06;;;10.40;90.30
64886;BME280;51514;52.206;5.114;2023-02-23T13:43:47;101690.25;;;10.35;90.86
64886;BME280;51514;52.206;5.114;2023-02-23T13:46:47;101706.81;;;10.30;91.21
64886;BME280;51514;52.206;5.114;2023-02-23T13:52:15;101712.91;;;10.32;91.40
64886;BME280;51514;52.206;5.114;2023-02-23T13:54:54;101713.66;;;10.34;91.32
64886;BME280;51514;52.206;5.114;2023-02-23T13:57:22;101704.13;;;10.30;90.91
64886;BME280;51514;52.206;5.114;2023-02-23T13:59:48;101708.66;;;10.30;91.43
64886;BME280;51514;52.206;5.114;2023-02-23T14:02:39;101708.09;;;10.26;91.34
64886;BME280;51514;52.206;5.114;2023-02-23T14:05:16;101707.78;;;10.29;91.51
64886;BME280;51514;52.206;5.114;2023-02-23T14:07:44;101709.50;;;10.30;91.08
64886;BME280;51514;52.206;5.114;2023-02-23T14:10:20;101710.81;;;10.36;91.63
64886;BME280;51514;52.206;5.114;2023-02-23T14:15:40;101711.84;;;10.44;90.38
64886;BME280;51514;52.206;5.114;2023-02-23T14:20:55;101712.75;;;10.24;88.89
64886;BME280;51514;52.206;5.114;2023-02-23T14:25:50;101709.78;;;10.27;89.02
64886;BME280;51514;52.206;5.114;2023-02-23T14:41:28;101717.94;;;10.16;89.02
64886;BME280;51514;52.206;5.114;2023-02-23T14:44:14;101724.59;;;9.91;90.22
64886;BME280;51514;52.206;5.114;2023-02-23T14:46:56;101718.69;;;9.76;90.83
64886;BME280;51514;52.206;5.114;2023-02-23T14:49:26;101721.47;;;9.65;91.63
64886;BME280;51514;52.206;5.114;2023-02-23T14:51:54;101716.88;;;9.56;92.28
64886;BME280;51514;52.206;5.114;2023-02-23T14:54:38;101718.63;;;9.46;93.44
64886;BME280;51514;52.206;5.114;2023-02-23T14:57:15;101731.38;;;9.44;92.68
64886;BME280;51514;52.206;5.114;2023-02-23T14:59:42;101731.41;;;9.33;92.89
64886;BME280;51514;52.206;5.114;2023-02-23T15:02:16;101735.41;;;9.18;92.92
64886;BME280;51514;52.206;5.114;2023-02-23T15:04:42;101735.66;;;9.14;92.65
64886;BME280;51514;52.206;5.114;2023-02-23T15:07:15;101734.47;;;9.07;92.83
64886;BME280;51514;52.206;5.114;2023-02-23T15:09:43;101734.22;;;8.99;92.94
64886;BME280;51514;52.206;5.114;2023-02-23T15:12:33;101736.34;;;8.96;92.77
64886;BME280;51514;52.206;5.114;2023-02-23T15:15:02;101740.38;;;8.90;92.58